Time;durP1;ratioP1;P1;durP2;ratioP2;P2;SDS_P1;SDS_P2;PMS_P1;PMS_P2;Temp;Humidity;BMP_temperature;BMP_pressure;BME280_temperature;BME280_humidity;BME280_pressure;Samples;Min_cycle;Max_cycle;Signal;HPM_P1;HPM_P2
2022/03/07 00:01:15;;;;;;;;;69.50;53.50;;;;;2.79;56.11;101423.03;5076445;27;45548;-67
2022/03/07 00:03:41;;;;;;;;;72.50;54.00;;;;;2.76;55.56;101418.69;5075027;28;46951;-65
2022/03/07 00:06:07;;;;;;;;;69.75;54.50;;;;;2.74;55.45;101419.56;5076317;27;45269;-68
2022/03/07 00:08:32;;;;;;;;;73.33;56.67;;;;;2.71;55.95;101416.94;5076365;27;45235;-68
2022/03/07 00:10:58;;;;;;;;;71.33;55.00;;;;;2.68;56.52;101419.50;5075755;27;45285;-69
2022/03/07 00:13:24;;;;;;;;;73.33;54.67;;;;;2.66;56.75;101413.44;5076064;27;46209;-69
2022/03/07 00:15:50;;;;;;;;;68.00;52.00;;;;;2.65;56.77;101414.28;5075996;27;45413;-66
2022/03/07 00:18:15;;;;;;;;;77.33;54.67;;;;;2.61;56.56;101410.81;5076111;27;45342;-65
2022/03/07 00:20:41;;;;;;;;;70.67;53.00;;;;;2.57;56.19;101414.25;5076674;27;45264;-66
2022/03/07 00:23:07;;;;;;;;;71.67;54.00;;;;;2.51;57.18;101409.00;5075822;27;46288;-69
2022/03/07 00:25:32;;;;;;;;;71.33;53.00;;;;;2.51;56.67;101424.59;5075841;27;45294;-70
2022/03/07 00:27:57;;;;;;;;;70.00;53.67;;;;;2.47;57.50;101421.09;5076369;27;45377;-64
2022/03/07 00:30:23;;;;;;;;;70.33;54.33;;;;;2.43;57.53;101428.00;5076323;27;45562;-67
2022/03/07 00:32:48;;;;;;;;;69.67;53.67;;;;;2.42;57.06;101430.56;5075963;27;45390;-66
2022/03/07 00:35:18;;;;;;;;;69.00;51.00;;;;;2.38;56.67;101424.50;5076616;27;45401;-67
2022/03/07 00:37:43;;;;;;;;;69.00;53.67;;;;;2.33;57.79;101419.25;5076046;27;46188;-67
2022/03/07 00:40:10;;;;;;;;;68.25;52.75;;;;;2.28;57.15;101420.09;5091353;27;45257;-65
2022/03/07 00:42:40;;;;;;;;;79.00;57.00;;;;;2.31;57.80;101433.09;5075499;27;46222;-66
2022/03/07 00:45:10;;;;;;;;;68.67;53.00;;;;;2.27;58.02;101424.41;5091052;27;45898;-69
2022/03/07 00:47:35;;;;;;;;;61.75;46.00;;;;;2.27;57.90;101429.59;5074346;27;45349;-66
2022/03/07 00:50:03;;;;;;;;;69.25;51.00;;;;;2.25;58.50;101426.13;5075939;27;45447;-67
2022/03/07 00:52:29;;;;;;;;;72.75;52.75;;;;;2.19;58.17;101419.19;5075493;27;46499;-67
2022/03/07 00:54:54;;;;;;;;;69.00;53.00;;;;;2.18;57.84;101427.81;5075341;27;45319;-70
2022/03/07 00:57:19;;;;;;;;;64.00;50.75;;;;;2.17;57.68;101426.09;5075387;27;45694;-68
2022/03/07 00:59:45;;;;;;;;;70.33;52.67;;;;;2.12;58.44;101422.56;5075791;27;45489;-70
2022/03/07 01:02:11;;;;;;;;;69.67;53.33;;;;;2.11;58.13;101425.16;5075078;27;45305;-68
2022/03/07 01:04:37;;;;;;;;;66.50;52.50;;;;;2.07;57.75;101416.44;5074936;27;45364;-70
2022/03/07 01:07:03;;;;;;;;;70.67;52.33;;;;;2.07;58.56;101415.59;5075311;27;45378;-67
2022/03/07 01:09:29;;;;;;;;;64.50;51.25;;;;;2.03;58.34;101420.75;5075314;27;45574;-64
2022/03/07 01:11:54;;;;;;;;;63.25;50.00;;;;;2.02;58.57;101416.44;5073475;28;46584;-68
2022/03/07 01:14:20;;;;;;;;;65.33;52.00;;;;;2.03;58.40;101423.34;5075063;27;45319;-67
2022/03/07 01:16:46;;;;;;;;;66.67;51.67;;;;;2.01;58.25;101422.47;5075382;27;45345;-67
2022/03/07 01:19:11;;;;;;;;;67.75;52.50;;;;;1.99;58.46;101421.59;5074059;27;45339;-70
2022/03/07 01:21:38;;;;;;;;;65.75;52.00;;;;;1.99;58.45;101420.69;5074820;27;45404;-68
2022/03/07 01:24:04;;;;;;;;;70.25;51.75;;;;;1.97;59.00;101407.72;5074715;27;45276;-68
2022/03/07 01:26:30;;;;;;;;;67.75;50.75;;;;;1.94;58.37;101412.91;5075768;27;45336;-70
2022/03/07 01:28:55;;;;;;;;;63.75;49.50;;;;;1.92;59.28;101414.59;5073747;27;45498;-64
2022/03/07 01:31:20;;;;;;;;;61.50;49.25;;;;;1.89;59.20;101412.84;5074659;27;45287;-67
2022/03/07 01:33:46;;;;;;;;;65.00;49.50;;;;;1.88;58.92;101415.44;5074814;27;45368;-66
2022/03/07 01:36:11;;;;;;;;;61.75;49.00;;;;;1.87;59.30;101411.09;5074625;27;45635;-65
2022/03/07 01:38:37;;;;;;;;;71.00;50.67;;;;;1.82;59.64;101408.44;5074746;27;45217;-65
2022/03/07 01:41:02;;;;;;;;;61.75;47.50;;;;;1.79;59.08;101402.38;5074384;27;45242;-65
2022/03/07 01:43:27;;;;;;;;;68.25;51.25;;;;;1.74;59.24;101410.09;5074393;27;45210;-68
2022/03/07 01:45:53;;;;;;;;;65.50;50.00;;;;;1.73;59.41;101418.75;5074697;27;45808;-70
2022/03/07 01:48:18;;;;;;;;;63.50;50.25;;;;;1.72;59.36;101409.22;5074806;27;45496;-66
2022/03/07 01:50:44;;;;;;;;;65.75;53.00;;;;;1.68;59.94;101407.44;5074569;27;45535;-71
2022/03/07 01:53:11;;;;;;;;;65.00;48.75;;;;;1.68;59.96;101404.84;5074994;27;45433;-65
2022/03/07 01:55:36;;;;;;;;;56.75;44.75;;;;;1.60;59.57;101397.88;5075110;27;45415;-66
2022/03/07 01:58:02;;;;;;;;;61.75;48.50;;;;;1.63;59.54;101404.81;5075194;27;45362;-65
2022/03/07 02:00:28;;;;;;;;;59.75;49.75;;;;;1.58;60.04;101404.75;5073841;27;47463;-64
2022/03/07 02:02:54;;;;;;;;;61.75;50.00;;;;;1.60;59.89;101397.03;5075361;27;45350;-64
2022/03/07 02:05:20;;;;;;;;;61.75;47.50;;;;;1.59;60.02;101397.84;5075813;27;45244;-65
2022/03/07 02:07:46;;;;;;;;;62.75;47.50;;;;;1.56;60.12;101392.63;5075849;27;45530;-64
2022/03/07 02:10:12;;;;;;;;;62.75;48.50;;;;;1.51;60.00;101379.63;5073516;27;47095;-64
2022/03/07 02:12:38;;;;;;;;;65.25;52.00;;;;;1.52;60.24;101391.75;5073450;27;45249;-62
2022/03/07 02:15:05;;;;;;;;;60.00;47.00;;;;;1.51;59.94;101386.53;5075049;27;45257;-64
2022/03/07 02:17:30;;;;;;;;;59.75;49.00;;;;;1.36;60.11;101362.19;5073959;27;45540;-65
2022/03/07 02:19:56;;;;;;;;;61.75;49.00;;;;;1.38;60.03;101372.56;5075104;27;45488;-67
2022/03/07 02:22:23;;;;;;;;;67.00;51.00;;;;;1.39;60.35;101374.31;5073335;27;45787;-65
2022/03/07 02:24:49;;;;;;;;;66.25;48.50;;;;;1.43;60.33;101374.34;5091087;27;45432;-64
2022/03/07 02:27:18;;;;;;;;;66.00;52.25;;;;;1.41;60.64;101380.38;5073783;28;45260;-66
2022/03/07 02:29:45;;;;;;;;;58.75;46.75;;;;;1.41;60.31;101370.00;5074693;27;46184;-65
2022/03/07 02:32:10;;;;;;;;;66.00;51.00;;;;;1.35;60.01;101362.19;5073374;27;45522;-67
2022/03/07 02:34:36;;;;;;;;;68.25;51.75;;;;;1.34;60.64;101366.47;5074903;28;45828;-63
2022/03/07 02:37:02;;;;;;;;;59.00;47.25;;;;;1.35;60.10;101370.81;5078178;27;45314;-67
2022/03/07 02:39:27;;;;;;;;;65.25;52.00;;;;;1.33;60.78;101364.75;5075794;27;45573;-69
2022/03/07 02:41:54;;;;;;;;;67.75;49.75;;;;;1.30;60.91;101363.00;5077015;27;45371;-69
2022/03/07 02:44:19;;;;;;;;;63.50;48.25;;;;;1.28;60.67;101356.94;5077662;27;45289;-68
2022/03/07 02:46:45;;;;;;;;;54.25;44.00;;;;;1.25;60.37;101356.91;5076004;27;45310;-67
2022/03/07 02:49:10;;;;;;;;;61.00;47.00;;;;;1.24;60.92;101357.75;5076853;27;45372;-66
2022/03/07 02:51:35;;;;;;;;;66.50;50.00;;;;;1.22;60.54;101362.03;5076999;27;45314;-67
2022/03/07 02:54:01;;;;;;;;;60.75;46.75;;;;;1.20;60.83;101345.59;5077057;27;45385;-68
2022/03/07 02:56:27;;;;;;;;;62.50;46.75;;;;;1.15;60.81;101347.28;5077052;27;45327;-69
2022/03/07 02:58:52;;;;;;;;;57.25;42.25;;;;;1.15;61.07;101348.13;5077048;27;46277;-69
2022/03/07 03:01:18;;;;;;;;;65.75;47.25;;;;;1.15;61.02;101349.88;5076798;27;45270;-67
2022/03/07 03:03:44;;;;;;;;;58.75;45.00;;;;;1.14;61.01;101350.72;5077117;27;45393;-66
2022/03/07 03:06:10;;;;;;;;;48.50;40.75;;;;;1.11;61.21;101346.38;5075707;28;45422;-67
2022/03/07 03:08:35;;;;;;;;;64.00;49.00;;;;;1.10;61.27;101351.53;5076565;27;46861;-65
2022/03/07 03:11:01;;;;;;;;;62.00;48.00;;;;;1.08;61.62;101342.88;5076468;27;45425;-64
2022/03/07 03:13:27;;;;;;;;;65.00;47.75;;;;;1.01;61.60;101342.78;5076711;27;45357;-65
2022/03/07 03:15:54;;;;;;;;;57.75;44.00;;;;;1.05;61.17;101340.22;5077168;27;45546;-65
2022/03/07 03:18:20;;;;;;;;;59.50;44.50;;;;;1.03;61.70;101340.22;5076922;27;45315;-65
2022/03/07 03:20:47;;;;;;;;;56.50;42.25;;;;;1.00;60.99;101338.44;5076725;27;45290;-66
2022/03/07 03:23:13;;;;;;;;;59.25;46.00;;;;;1.00;61.58;101340.19;5076937;27;45243;-68
2022/03/07 03:25:38;;;;;;;;;62.50;47.25;;;;;0.96;61.50;101339.28;5076671;27;45341;-70
2022/03/07 03:28:05;;;;;;;;;54.75;44.25;;;;;0.96;61.14;101335.81;5076674;27;46429;-69
2022/03/07 03:30:31;;;;;;;;;60.75;44.50;;;;;0.95;61.49;101339.28;5077325;27;45312;-68
2022/03/07 03:32:57;;;;;;;;;55.50;42.50;;;;;0.93;61.42;101335.78;5076814;28;45390;-71
2022/03/07 03:35:23;;;;;;;;;59.50;46.25;;;;;0.90;61.89;101336.59;5076989;27;45407;-70
2022/03/07 03:37:48;;;;;;;;;55.75;43.75;;;;;0.88;61.91;101338.31;5076266;27;46725;-67
2022/03/07 03:40:14;;;;;;;;;53.50;42.50;;;;;0.86;61.46;101333.13;5076165;27;45319;-67
2022/03/07 03:42:40;;;;;;;;;61.75;45.75;;;;;0.86;61.70;101332.25;5091802;27;45713;-68
2022/03/07 03:45:08;;;;;;;;;56.00;47.00;;;;;0.76;61.61;101326.09;5076064;27;45525;-70
2022/03/07 03:47:34;;;;;;;;;59.25;47.00;;;;;0.81;61.73;101342.56;5075366;28;47177;-68
2022/03/07 03:50:00;;;;;;;;;44.50;38.25;;;;;0.79;62.04;101343.38;5076114;27;45430;-69
2022/03/07 03:52:25;;;;;;;;;53.00;43.50;;;;;0.76;61.78;101338.16;5076268;27;45264;-65
2022/03/07 03:54:51;;;;;;;;;58.00;45.00;;;;;0.75;62.18;101336.44;5075631;27;45650;-67
2022/03/07 03:57:16;;;;;;;;;57.00;42.75;;;;;0.73;62.16;101345.03;5076034;27;45505;-68
2022/03/07 03:59:42;;;;;;;;;60.50;46.25;;;;;0.70;61.99;101344.16;5076493;27;45418;-66
2022/03/07 04:02:07;;;;;;;;;64.75;46.25;;;;;0.72;62.17;101340.72;5076460;27;45341;-69
2022/03/07 04:04:32;;;;;;;;;56.25;44.50;;;;;0.67;62.32;101339.78;5076293;27;45532;-65
2022/03/07 04:06:58;;;;;;;;;52.75;42.00;;;;;0.66;62.45;101344.97;5075701;27;46855;-67
2022/03/07 04:09:24;;;;;;;;;63.00;46.50;;;;;0.63;62.00;101345.78;5076076;27;45323;-67
2022/03/07 04:11:50;;;;;;;;;63.50;48.25;;;;;0.64;62.38;101350.09;5076015;27;45319;-66
2022/03/07 04:14:16;;;;;;;;;60.25;44.50;;;;;0.63;62.78;101345.78;5076260;27;45242;-67
2022/03/07 04:16:42;;;;;;;;;55.25;44.25;;;;;0.62;62.68;101345.78;5074178;28;48228;-67
2022/03/07 04:19:09;;;;;;;;;58.75;45.75;;;;;0.55;62.65;101337.91;5075996;27;45342;-68
2022/03/07 04:21:35;;;;;;;;;55.50;38.75;;;;;0.58;62.75;101344.84;5076032;27;45466;-67
2022/03/07 04:24:02;;;;;;;;;62.25;45.50;;;;;0.55;62.81;101345.69;5076009;27;45302;-66
2022/03/07 04:26:28;;;;;;;;;61.00;43.00;;;;;0.54;62.88;101343.06;5075234;27;46321;-67
2022/03/07 04:28:54;;;;;;;;;56.75;42.50;;;;;0.51;62.78;101340.44;5075636;27;45235;-68
2022/03/07 04:31:21;;;;;;;;;61.50;42.75;;;;;0.49;62.84;101336.97;5075857;27;45279;-70
2022/03/07 04:33:46;;;;;;;;;55.50;42.00;;;;;0.46;63.80;101339.50;5076155;27;45590;-68
2022/03/07 04:36:14;;;;;;;;;59.25;46.50;;;;;0.45;63.02;101345.53;5073974;27;48233;-66
2022/03/07 04:38:39;;;;;;;;;63.50;48.75;;;;;0.42;63.49;101344.63;5075360;27;45393;-66
2022/03/07 04:41:05;;;;;;;;;55.00;44.00;;;;;0.41;63.28;101342.00;5075588;27;45364;-68
2022/03/07 04:43:30;;;;;;;;;56.75;44.25;;;;;0.38;63.74;101348.03;5075438;27;45404;-67
2022/03/07 04:45:56;;;;;;;;;59.25;43.00;;;;;0.39;63.55;101348.88;5075403;28;45928;-68
2022/03/07 04:48:22;;;;;;;;;60.75;46.75;;;;;0.39;63.78;101348.88;5075408;27;45425;-66
2022/03/07 04:50:48;;;;;;;;;58.50;44.75;;;;;0.36;63.31;101354.91;5075210;27;45354;-66
2022/03/07 04:53:13;;;;;;;;;59.50;44.25;;;;;0.37;63.46;101355.75;5075527;27;45514;-68
2022/03/07 04:55:39;;;;;;;;;54.50;44.25;;;;;0.35;63.44;101354.88;5074999;27;46712;-67
2022/03/07 04:58:05;;;;;;;;;54.50;43.00;;;;;0.35;63.71;101352.28;5074419;27;45406;-66
2022/03/07 05:00:31;;;;;;;;;58.00;45.00;;;;;0.31;63.52;101348.78;5075121;27;45266;-64
2022/03/07 05:02:57;;;;;;;;;57.25;46.00;;;;;0.31;63.89;101358.25;5075554;27;45234;-69
2022/03/07 05:05:22;;;;;;;;;48.25;42.25;;;;;0.28;63.80;101359.97;5074805;28;46097;-68
2022/03/07 05:07:51;;;;;;;;;58.75;47.25;;;;;0.25;64.11;101357.31;5074935;27;45183;-69
2022/03/07 05:10:17;;;;;;;;;57.25;43.50;;;;;0.28;63.87;101356.50;5074257;27;45366;-70
2022/03/07 05:12:43;;;;;;;;;48.25;38.75;;;;;0.26;63.70;101358.22;5075700;27;45425;-70
2022/03/07 05:15:09;;;;;;;;;50.25;43.00;;;;;0.24;63.93;101358.16;5074796;27;45508;-67
2022/03/07 05:17:53;;;;;;;;;56.00;46.75;;;;;0.22;63.88;101354.69;5074685;27;45616;-69
2022/03/07 05:20:23;;;;;;;;;51.75;41.75;;;;;0.19;63.78;101357.22;5074948;27;45424;-65
2022/03/07 05:22:48;;;;;;;;;58.25;43.75;;;;;0.16;64.51;101352.00;5074956;27;45327;-66
2022/03/07 05:25:15;;;;;;;;;59.25;46.75;;;;;0.14;64.63;101352.00;5074644;27;45382;-67
2022/03/07 05:27:41;;;;;;;;;59.25;47.25;;;;;0.12;64.61;101361.47;5074965;27;45332;-68
2022/03/07 05:30:09;;;;;;;;;65.75;46.50;;;;;0.13;64.36;101349.38;5075009;27;45341;-69
2022/03/07 05:32:35;;;;;;;;;58.00;44.25;;;;;0.12;64.73;101361.47;5075390;27;45511;-68
2022/03/07 05:35:00;;;;;;;;;58.75;46.25;;;;;0.11;64.86;101353.66;5090622;27;46268;-69
2022/03/07 05:37:26;;;;;;;;;53.75;44.75;;;;;0.09;64.86;101355.34;5074771;28;45326;-68
2022/03/07 05:39:51;;;;;;;;;63.00;48.00;;;;;0.09;64.58;101355.34;5074342;27;45386;-69
2022/03/07 05:42:17;;;;;;;;;60.00;43.50;;;;;0.09;64.65;101360.53;5074632;27;45591;-69
2022/03/07 05:44:42;;;;;;;;;61.75;47.75;;;;;0.06;64.22;101353.59;5074594;28;45983;-69
2022/03/07 05:47:08;;;;;;;;;56.00;43.50;;;;;0.04;64.58;101351.81;5072828;27;45277;-68
2022/03/07 05:49:33;;;;;;;;;50.00;39.75;;;;;0.05;64.30;101356.16;5074413;27;45329;-69
2022/03/07 05:51:59;;;;;;;;;59.75;44.50;;;;;0.03;64.49;101355.25;5075013;27;45386;-68
2022/03/07 05:54:24;;;;;;;;;56.75;43.00;;;;;0.02;63.99;101357.00;5089689;27;48529;-67
2022/03/07 05:56:50;;;;;;;;;59.50;44.50;;;;;0.02;64.32;101362.16;5074570;27;45334;-67
2022/03/07 05:59:15;;;;;;;;;53.50;42.25;;;;;0.01;64.78;101363.00;5074878;27;45290;-67
2022/03/07 06:01:40;;;;;;;;;61.25;47.75;;;;;-0.02;64.41;101365.50;5075020;27;45605;-69
2022/03/07 06:04:06;;;;;;;;;57.75;47.25;;;;;-0.01;64.64;101372.44;5075182;27;46555;-70
2022/03/07 06:06:32;;;;;;;;;64.00;45.75;;;;;-0.05;65.22;101361.19;5075673;27;45326;-70
2022/03/07 06:08:57;;;;;;;;;57.25;43.50;;;;;-0.02;64.35;101363.81;5075204;27;45465;-69
2022/03/07 06:11:22;;;;;;;;;57.25;44.25;;;;;-0.04;64.67;101362.03;5077944;27;45609;-66
2022/03/07 06:13:48;;;;;;;;;58.25;46.75;;;;;-0.06;64.42;101363.72;5077288;27;46889;-66
2022/03/07 06:16:13;;;;;;;;;57.75;44.75;;;;;-0.07;64.77;101375.81;5077599;27;45481;-66
2022/03/07 06:18:39;;;;;;;;;59.50;45.75;;;;;-0.08;64.89;101370.59;5076187;27;45412;-64
2022/03/07 06:21:05;;;;;;;;;58.50;44.50;;;;;-0.10;64.75;101377.44;5079544;27;45294;-67
2022/03/07 06:23:31;;;;;;;;;57.75;46.00;;;;;-0.11;64.69;101374.00;5076362;28;47341;-68
2022/03/07 06:25:56;;;;;;;;;57.25;46.50;;;;;-0.08;64.78;101371.47;5077462;27;45302;-66
2022/03/07 06:28:22;;;;;;;;;64.00;47.50;;;;;-0.08;64.66;101378.34;5079580;27;45413;-69
2022/03/07 06:30:47;;;;;;;;;63.25;46.75;;;;;-0.10;65.11;101380.03;5078089;27;45557;-70
2022/03/07 06:33:14;;;;;;;;;58.00;43.00;;;;;-0.11;65.20;101370.53;5077374;27;46063;-70
2022/03/07 06:35:39;;;;;;;;;56.25;42.50;;;;;-0.12;64.58;101369.69;5077567;27;45343;-70
2022/03/07 06:38:05;;;;;;;;;57.50;47.75;;;;;-0.08;64.87;101381.81;5077402;27;45344;-68
2022/03/07 06:40:31;;;;;;;;;57.75;47.25;;;;;-0.06;64.53;101374.06;5077890;27;45409;-66
2022/03/07 06:42:57;;;;;;;;;46.75;40.50;;;;;-0.04;64.61;101381.03;5077260;27;46172;-69
2022/03/07 06:45:23;;;;;;;;;64.25;46.50;;;;;-0.01;64.12;101385.38;5077723;27;45295;-69
2022/03/07 06:47:48;;;;;;;;;61.25;46.00;;;;;-0.01;64.51;101385.38;5077815;27;45560;-69
2022/03/07 06:50:15;;;;;;;;;61.75;47.00;;;;;-0.05;64.54;101381.88;5078060;27;45610;-70
2022/03/07 06:52:40;;;;;;;;;58.25;44.75;;;;;0.01;64.49;101395.75;5076054;27;46363;-69
2022/03/07 06:55:06;;;;;;;;;59.50;47.00;;;;;-0.02;64.04;101394.84;5076798;27;45421;-70
2022/03/07 06:57:32;;;;;;;;;58.75;45.25;;;;;-0.02;65.20;101393.97;5077393;27;45411;-69
2022/03/07 06:59:57;;;;;;;;;54.25;45.75;;;;;-0.02;64.69;101386.22;5093849;27;45681;-68
2022/03/07 07:02:23;;;;;;;;;61.75;49.00;;;;;-0.03;63.99;101381.88;5077063;27;45496;-69
2022/03/07 07:04:48;;;;;;;;;61.75;47.50;;;;;0.01;64.34;101385.41;5077391;27;45435;-71
2022/03/07 07:07:15;;;;;;;;;59.25;43.25;;;;;0.02;64.17;101388.03;5077304;27;45268;-69
2022/03/07 07:09:41;;;;;;;;;61.75;48.25;;;;;0.02;64.83;101376.78;5077358;27;45374;-68
2022/03/07 07:12:07;;;;;;;;;61.00;47.25;;;;;0.07;64.13;101381.22;5076912;27;45912;-69
2022/03/07 07:14:33;;;;;;;;;55.00;43.00;;;;;0.10;64.34;101381.25;5077125;27;45323;-66
2022/03/07 07:16:58;;;;;;;;;46.75;42.25;;;;;0.08;63.81;101384.66;5077041;27;45436;-69
2022/03/07 07:19:24;;;;;;;;;65.75;48.75;;;;;0.09;64.06;101389.88;5092770;27;45252;-70
2022/03/07 07:21:49;;;;;;;;;61.25;49.25;;;;;0.09;64.24;101387.28;5076077;27;46998;-70
2022/03/07 07:24:15;;;;;;;;;63.75;46.00;;;;;0.09;64.35;101379.53;5076770;27;45893;-69
2022/03/07 07:26:40;;;;;;;;;62.50;47.50;;;;;0.11;64.36;101384.69;5076675;27;45407;-70
2022/03/07 07:29:06;;;;;;;;;65.50;47.50;;;;;0.11;64.22;101383.00;5076855;27;45643;-68
2022/03/07 07:31:32;;;;;;;;;62.75;48.50;;;;;0.11;63.41;101388.19;5076450;27;47203;-66
2022/03/07 07:33:58;;;;;;;;;64.25;50.25;;;;;0.09;63.69;101391.56;5076583;27;45306;-69
2022/03/07 07:36:23;;;;;;;;;55.00;41.00;;;;;0.07;63.25;101386.38;5076387;27;45362;-68
2022/03/07 07:38:49;;;;;;;;;63.25;48.00;;;;;0.11;63.36;101385.59;5076315;27;45455;-65
2022/03/07 07:41:14;;;;;;;;;63.50;48.25;;;;;0.16;63.58;101395.16;5076021;27;45325;-67
2022/03/07 07:43:40;;;;;;;;;55.00;43.50;;;;;0.19;63.91;101390.00;5076299;27;45375;-66
2022/03/07 07:46:05;;;;;;;;;64.50;48.25;;;;;0.22;63.49;101387.47;5075373;28;45487;-69
2022/03/07 07:48:30;;;;;;;;;59.25;47.50;;;;;0.26;63.31;101391.84;5076661;27;45296;-69
2022/03/07 07:50:56;;;;;;;;;55.00;44.00;;;;;0.27;63.10;101391.84;5076141;27;46470;-69
2022/03/07 07:53:21;;;;;;;;;62.00;46.00;;;;;0.30;62.69;101385.88;5074718;28;45716;-67
2022/03/07 07:55:46;;;;;;;;;41.50;37.75;;;;;0.34;63.11;101382.47;5076279;27;45290;-69
2022/03/07 07:58:12;;;;;;;;;60.75;44.50;;;;;0.45;63.18;101384.34;5076487;27;45586;-71
2022/03/07 08:00:37;;;;;;;;;61.25;47.75;;;;;0.48;62.75;101379.22;5076220;27;45348;-65
2022/03/07 08:03:03;;;;;;;;;60.75;44.75;;;;;0.56;62.45;101380.19;5076078;27;45357;-66
2022/03/07 08:05:28;;;;;;;;;67.75;50.50;;;;;0.57;61.98;101382.81;5076669;27;45833;-71
2022/03/07 08:07:53;;;;;;;;;65.00;50.00;;;;;0.65;62.00;101382.91;5075910;27;45491;-69
2022/03/07 08:10:19;;;;;;;;;56.25;46.00;;;;;0.72;61.72;101381.28;5075834;27;45831;-70
2022/03/07 08:12:45;;;;;;;;;59.75;47.25;;;;;0.78;61.39;101378.78;5075770;27;45321;-71
2022/03/07 08:15:12;;;;;;;;;57.50;46.25;;;;;0.79;61.71;101358.91;5075915;27;45297;-68
2022/03/07 08:17:49;;;;;;;;;61.00;47.00;;;;;0.98;61.12;101385.94;5076211;27;45233;-69
2022/03/07 08:20:19;;;;;;;;;62.25;47.50;;;;;1.05;60.52;101379.97;5075968;27;45401;-71
2022/03/07 08:22:45;;;;;;;;;59.75;46.50;;;;;1.15;59.83;101384.41;5077430;27;45223;-69
2022/03/07 08:25:11;;;;;;;;;56.50;45.75;;;;;1.22;59.86;101377.59;5076161;27;45342;-70
2022/03/07 08:27:37;;;;;;;;;59.75;46.75;;;;;1.31;59.65;101388.06;5076585;27;45473;-72
2022/03/07 08:30:07;;;;;;;;;61.50;46.25;;;;;1.37;59.07;101386.41;5075553;27;45324;-70
2022/03/07 08:32:36;;;;;;;;;57.75;43.50;;;;;1.42;58.41;101382.97;5074774;27;45463;-70
2022/03/07 08:35:04;;;;;;;;;61.50;46.50;;;;;1.43;58.70;101373.50;5075873;27;45417;-70
2022/03/07 08:37:29;;;;;;;;;54.50;42.75;;;;;1.50;58.41;101362.34;5075782;27;45521;-71
2022/03/07 08:39:54;;;;;;;;;55.75;44.75;;;;;1.62;58.57;101369.38;5075142;27;46089;-70
2022/03/07 08:42:20;;;;;;;;;61.50;43.25;;;;;1.69;58.18;101359.91;5075284;27;45327;-72
2022/03/07 08:44:46;;;;;;;;;54.00;42.75;;;;;1.74;57.79;101366.00;5075542;27;45435;-70
2022/03/07 08:47:12;;;;;;;;;55.00;44.50;;;;;1.80;58.22;101358.28;5077420;27;45326;-76
2022/03/07 08:49:38;;;;;;;;;56.75;46.25;;;;;1.87;57.58;101354.03;5080275;27;45580;-69
2022/03/07 08:52:04;;;;;;;;;55.50;43.75;;;;;1.89;56.29;101366.13;5077633;27;45580;-73
2022/03/07 08:54:29;;;;;;;;;57.00;43.25;;;;;1.93;56.81;101360.97;5075859;27;45256;-74
2022/03/07 08:56:55;;;;;;;;;61.75;47.00;;;;;1.93;57.12;101348.00;5075990;27;45584;-72
2022/03/07 08:59:20;;;;;;;;;58.25;44.25;;;;;2.03;56.55;101363.66;5076189;28;45919;-71
2022/03/07 09:01:46;;;;;;;;;56.25;42.25;;;;;2.09;55.92;101368.00;5075356;27;45194;-78
2022/03/07 09:04:11;;;;;;;;;54.25;44.25;;;;;2.16;56.40;101358.56;5075949;27;45275;-68
2022/03/07 09:06:36;;;;;;;;;60.75;45.00;;;;;2.23;55.88;101362.94;5076282;27;45172;-69
2022/03/07 09:09:02;;;;;;;;;55.75;40.25;;;;;2.28;55.46;101355.19;5075418;27;45325;-72
2022/03/07 09:11:28;;;;;;;;;53.75;42.00;;;;;2.34;55.46;101356.09;5076231;27;45393;-74
2022/03/07 09:13:53;;;;;;;;;51.75;42.75;;;;;2.41;55.95;101358.72;5075408;27;45324;-72
2022/03/07 09:16:19;;;;;;;;;53.75;44.00;;;;;2.49;56.13;101357.03;5079355;27;45364;-76
2022/03/07 09:18:44;;;;;;;;;55.50;41.25;;;;;2.56;54.72;101360.56;5079787;27;46029;-77
2022/03/07 09:21:09;;;;;;;;;50.50;40.00;;;;;2.60;54.29;101359.72;5078087;27;45530;-73
2022/03/07 09:23:37;;;;;;;;;54.00;43.25;;;;;2.62;54.15;101352.78;5076457;27;45332;-72
2022/03/07 09:26:09;;;;;;;;;78.67;61.00;;;;;2.73;54.82;101352.84;5076164;27;45306;-68
2022/03/07 09:28:35;;;;;;;;;55.25;41.00;;;;;2.84;54.43;101351.19;5076174;27;45431;-68
2022/03/07 09:31:01;;;;;;;;;50.00;38.00;;;;;2.94;54.55;101346.88;5076274;27;45502;-78
2022/03/07 09:33:28;;;;;;;;;57.75;45.25;;;;;3.09;54.68;101348.66;5077214;27;45390;-74
2022/03/07 09:35:54;;;;;;;;;57.50;45.50;;;;;3.24;53.52;101350.44;5077929;27;45338;-73
2022/03/07 09:38:20;;;;;;;;;50.00;41.00;;;;;3.28;53.20;101352.19;5078571;27;45291;-73
2022/03/07 09:40:46;;;;;;;;;59.00;43.75;;;;;3.38;53.08;101360.00;5079430;27;45232;-74
2022/03/07 09:43:14;;;;;;;;;50.50;40.75;;;;;3.42;52.09;101348.75;5078713;27;45270;-74
2022/03/07 09:45:39;;;;;;;;;56.50;44.00;;;;;3.52;52.03;101355.72;5078085;28;45608;-78
2022/03/07 09:48:05;;;;;;;;;57.25;43.00;;;;;3.58;52.03;101347.91;5078083;27;46517;-77
2022/03/07 09:50:31;;;;;;;;;53.50;43.50;;;;;3.62;51.34;101347.03;5078471;27;45423;-77
2022/03/07 09:53:01;;;;;;;;;51.00;41.00;;;;;3.68;51.49;101342.72;5093515;27;45370;-75
2022/03/07 09:55:28;;;;;;;;;55.25;44.00;;;;;3.75;51.02;101339.25;5078623;28;45339;-77
2022/03/07 09:57:53;;;;;;;;;48.25;40.50;;;;;3.85;52.01;101346.19;5077894;27;45445;-83
2022/03/07 10:00:19;;;;;;;;;43.00;38.00;;;;;3.92;50.28;101334.06;5075771;27;45249;-82
2022/03/07 10:03:09;;;;;;;;;49.75;41.25;;;;;3.87;48.68;101339.25;5077327;27;45341;-75
2022/03/07 10:05:44;;;;;;;;;46.50;39.25;;;;;3.84;49.10;101334.03;5078332;27;45509;-75
2022/03/07 10:08:10;;;;;;;;;52.00;40.75;;;;;3.91;50.84;101332.31;5094300;27;47968;-81
2022/03/07 10:10:41;;;;;;;;;58.50;42.75;;;;;4.01;49.74;101325.34;5092930;27;46051;-78
2022/03/07 10:13:09;;;;;;;;;51.00;38.50;;;;;4.15;49.14;101323.59;5079459;27;45359;-79
2022/03/07 10:15:36;;;;;;;;;51.00;41.25;;;;;4.23;49.88;101324.44;5079418;27;45398;-70
2022/03/07 10:18:02;;;;;;;;;53.00;40.00;;;;;4.34;49.97;101320.97;5075748;27;46225;-74
2022/03/07 10:20:28;;;;;;;;;50.00;39.25;;;;;4.37;48.23;101323.56;5074315;27;45442;-72
2022/03/07 10:22:59;;;;;;;;;54.50;43.00;;;;;4.41;48.20;101327.91;5074861;28;45276;-77
2022/03/07 10:25:32;;;;;;;;;52.75;42.50;;;;;4.42;45.92;101321.81;5077362;27;45367;-74
2022/03/07 10:28:01;;;;;;;;;39.25;33.00;;;;;4.43;47.22;101317.47;5077762;27;45526;-70
2022/03/07 10:30:30;;;;;;;;;51.75;40.00;;;;;4.50;47.38;101325.28;5083366;28;45215;-77
2022/03/07 10:32:58;;;;;;;;;43.00;36.00;;;;;4.55;46.85;101317.44;5099833;27;45260;-77
2022/03/07 10:35:42;;;;;;;;;50.00;39.25;;;;;4.64;47.33;101314.78;5083171;28;45316;-77
2022/03/07 10:38:12;;;;;;;;;53.50;41.25;;;;;4.75;47.48;101313.88;5076724;28;46133;-70
2022/03/07 10:40:40;;;;;;;;;49.75;39.00;;;;;4.89;47.07;101324.25;5092038;27;45348;-80
2022/03/07 10:43:07;;;;;;;;;53.50;41.50;;;;;4.97;46.83;101302.50;5074915;27;45271;-76
2022/03/07 10:45:48;;;;;;;;;50.75;41.25;;;;;5.10;47.49;101305.88;5075693;28;45160;-73
2022/03/07 10:48:14;;;;;;;;;53.00;39.00;;;;;5.22;46.39;101307.56;5075970;27;46386;-72
2022/03/07 10:50:47;;;;;;;;;47.50;36.00;;;;;5.34;47.44;101306.63;5076794;27;45338;-75
2022/03/07 10:53:12;;;;;;;;;51.50;41.75;;;;;5.51;46.47;101300.44;5078568;28;45275;-71
2022/03/07 10:55:38;;;;;;;;;44.75;39.75;;;;;5.62;45.92;101296.00;5079489;27;45546;-76
2022/03/07 10:58:12;;;;;;;;;50.00;40.50;;;;;5.70;45.66;101298.50;5083939;27;46375;-71
2022/03/07 11:00:52;;;;;;;;;49.25;41.50;;;;;5.78;45.51;101277.56;5080432;27;45424;-72
2022/03/07 11:03:20;;;;;;;;;50.50;42.00;;;;;5.90;45.32;101295.75;5084172;27;45354;-79
2022/03/07 11:05:46;;;;;;;;;50.50;40.75;;;;;5.91;44.04;101296.63;5085014;27;45525;-76
2022/03/07 11:08:15;;;;;;;;;50.75;38.25;;;;;5.89;45.54;101282.72;5083774;27;46610;-79
2022/03/07 11:10:54;;;;;;;;;35.25;33.00;;;;;5.91;42.98;101284.41;5085767;27;45429;-75
2022/03/07 11:13:26;;;;;;;;;48.50;37.50;;;;;5.89;44.53;101275.72;5088475;27;45287;-74